Time;durP1;ratioP1;P1;durP2;ratioP2;P2;SDS_P1;SDS_P2;PMS_P1;PMS_P2;Temp;Humidity;BMP_temperature;BMP_pressure;BME280_temperature;BME280_humidity;BME280_pressure;Samples;Min_cycle;Max_cycle;Signal;HPM_P1;HPM_P2
2023/02/16 00:00:18;;;;;;;28.10;12.75;;;10.20;99.90;;;;;;5007221;28;20072;-60
2023/02/16 00:02:45;;;;;;;31.20;12.27;;;10.20;99.90;;;;;;5022812;28;20128;-60
2023/02/16 00:05:29;;;;;;;38.03;13.88;;;10.20;99.90;;;;;;5022993;28;20053;-60
2023/02/16 00:07:56;;;;;;;28.23;13.27;;;10.20;99.90;;;;;;5023948;28;20435;-63
2023/02/16 00:10:23;;;;;;;27.67;13.20;;;10.10;99.90;;;;;;5024474;28;20128;-60
2023/02/16 00:15:35;;;;;;;24.50;11.60;;;10.10;99.90;;;;;;5009797;28;20104;-60
2023/02/16 00:18:04;;;;;;;31.38;11.98;;;10.10;99.90;;;;;;5024901;28;20076;-60
2023/02/16 00:20:31;;;;;;;28.63;13.57;;;10.10;99.90;;;;;;5008554;28;20045;-60
2023/02/16 00:22:58;;;;;;;25.58;12.50;;;10.10;99.90;;;;;;5025964;28;20051;-60
2023/02/16 00:25:24;;;;;;;28.73;11.55;;;10.10;99.90;;;;;;5020354;28;20136;-61
2023/02/16 00:27:51;;;;;;;34.00;14.63;;;10.10;99.90;;;;;;5026093;28;20136;-61
2023/02/16 00:30:19;;;;;;;20.23;11.52;;;10.10;99.90;;;;;;5023953;28;20037;-60
2023/02/16 00:32:46;;;;;;;23.67;11.32;;;10.10;99.90;;;;;;5026559;28;20056;-61
2023/02/16 00:35:14;;;;;;;26.38;12.30;;;10.20;99.90;;;;;;5025343;28;20136;-60
2023/02/16 00:37:41;;;;;;;19.23;10.32;;;10.10;99.90;;;;;;5026111;28;20045;-60
2023/02/16 00:40:09;;;;;;;19.83;11.23;;;10.10;99.90;;;;;;5018570;28;20499;-60
2023/02/16 00:42:35;;;;;;;27.13;12.60;;;10.10;99.90;;;;;;5026313;28;20052;-60
2023/02/16 00:45:03;;;;;;;25.80;12.02;;;10.10;99.90;;;;;;5007991;28;20490;-60
2023/02/16 00:47:38;;;;;;;26.75;12.77;;;10.10;99.90;;;;;;5023460;28;20045;-60
2023/02/16 00:50:17;;;;;;;25.55;10.88;;;10.10;99.90;;;;;;5019183;28;20061;-61
2023/02/16 00:52:47;;;;;;;25.13;11.63;;;10.10;99.90;;;;;;5025669;28;20073;-60
2023/02/16 00:55:18;;;;;;;22.58;8.88;;;10.10;99.90;;;;;;5023081;28;20060;-60
2023/02/16 00:57:54;;;;;;;18.92;9.10;;;10.00;99.90;;;;;;5025860;28;20065;-60
2023/02/16 01:00:35;;;;;;;18.92;9.10;;;10.00;99.90;;;;;;5025601;28;20060;-60
2023/02/16 01:03:07;;;;;;;18.38;9.45;;;9.90;99.90;;;;;;5008338;28;20057;-60
2023/02/16 01:05:33;;;;;;;20.15;7.75;;;9.90;99.90;;;;;;5025504;28;20081;-60
2023/02/16 01:11:06;;;;;;;17.80;7.50;;;9.90;99.90;;;;;;5013737;28;20080;-60
2023/02/16 01:13:47;;;;;;;19.92;7.90;;;9.90;99.90;;;;;;5001839;28;20049;-60
2023/02/16 01:16:19;;;;;;;21.88;9.18;;;9.90;99.90;;;;;;4995300;28;20095;-60
2023/02/16 01:18:45;;;;;;;15.93;6.72;;;9.90;99.90;;;;;;5010683;28;20064;-60
2023/02/16 01:21:12;;;;;;;15.02;7.63;;;9.90;99.90;;;;;;5028025;28;20088;-59
2023/02/16 01:23:39;;;;;;;20.50;7.35;;;9.80;99.90;;;;;;5028319;28;20282;-59
2023/02/16 01:26:10;;;;;;;14.85;6.78;;;9.80;99.90;;;;;;5027357;28;20138;-62
2023/02/16 01:28:37;;;;;;;14.82;7.35;;;9.70;99.90;;;;;;5010805;28;20060;-59
2023/02/16 01:31:04;;;;;;;13.60;6.38;;;9.70;99.90;;;;;;5028942;28;20049;-59
2023/02/16 01:33:32;;;;;;;16.40;7.55;;;9.60;99.90;;;;;;5029815;28;20053;-60
2023/02/16 01:35:58;;;;;;;17.90;6.13;;;9.60;99.90;;;;;;5028729;28;20045;-59
2023/02/16 01:38:26;;;;;;;22.90;7.05;;;9.60;99.90;;;;;;5028945;28;20049;-62
2023/02/16 01:41:02;;;;;;;15.52;6.53;;;9.60;99.90;;;;;;5028730;28;20467;-59
2023/02/16 01:43:47;;;;;;;16.58;6.93;;;9.60;99.90;;;;;;5001748;28;20060;-60
2023/02/16 01:46:28;;;;;;;14.75;6.97;;;9.60;99.90;;;;;;5011747;28;20053;-61
2023/02/16 01:48:54;;;;;;;18.20;7.25;;;9.50;99.90;;;;;;5013350;28;20049;-60
2023/02/16 01:51:25;;;;;;;14.43;6.90;;;9.50;99.90;;;;;;5029431;28;20488;-60
2023/02/16 01:54:07;;;;;;;11.65;5.90;;;9.50;99.90;;;;;;4985015;28;20048;-60
2023/02/16 01:56:51;;;;;;;12.05;6.60;;;9.50;99.90;;;;;;4995337;28;20076;-60
2023/02/16 01:59:39;;;;;;;15.85;5.95;;;9.50;99.90;;;;;;4659417;28;10000517;-60
2023/02/16 02:02:25;;;;;;;11.65;6.05;;;9.40;99.90;;;;;;5013049;28;20108;-60
2023/02/16 02:11:10;;;;;;;13.02;5.80;;;9.30;99.90;;;;;;3354358;23;20063;-60
2023/02/16 02:13:43;;;;;;;15.48;6.22;;;9.30;99.90;;;;;;4983141;28;20565;-60
2023/02/16 02:16:09;;;;;;;13.13;4.53;;;9.30;99.90;;;;;;5010058;28;20050;-61
2023/02/16 02:18:36;;;;;;;11.95;4.53;;;9.30;99.90;;;;;;5007989;28;20057;-59
2023/02/16 02:25:11;;;;;;;4.47;2.90;;;9.30;99.90;;;;;;4947914;29;20047;-60
2023/02/16 02:27:43;;;;;;;8.27;3.58;;;9.30;99.90;;;;;;4947777;29;20055;-60
2023/02/16 02:30:31;;;;;;;14.23;4.18;;;9.30;99.90;;;;;;4962994;28;20050;-61
2023/02/16 02:33:11;;;;;;;9.10;2.83;;;9.30;99.90;;;;;;5009111;28;20056;-62
2023/02/16 02:36:08;;;;;;;7.38;2.70;;;9.30;99.90;;;;;;4991942;28;20048;-61
2023/02/16 02:39:10;;;;;;;5.80;2.53;;;9.30;99.90;;;;;;4990803;28;20042;-61
2023/02/16 02:42:04;;;;;;;7.15;2.70;;;9.30;99.90;;;;;;4949477;28;20050;-61
2023/02/16 02:44:54;;;;;;;7.10;2.35;;;9.30;99.90;;;;;;5008772;28;20053;-60
2023/02/16 02:47:21;;;;;;;8.32;2.42;;;9.30;99.90;;;;;;4990368;28;20057;-61
2023/02/16 02:49:49;;;;;;;6.93;3.05;;;9.20;99.90;;;;;;4990126;28;20042;-58
2023/02/16 02:52:16;;;;;;;7.93;2.40;;;9.20;99.90;;;;;;5009091;28;20368;-61
2023/02/16 03:00:40;;;;;;;7.22;2.17;;;9.10;99.90;;;;;;5008075;28;20046;-61
2023/02/16 03:03:09;;;;;;;4.47;1.77;;;9.00;99.90;;;;;;4991736;28;20075;-60
2023/02/16 03:05:36;;;;;;;10.77;2.25;;;9.00;99.90;;;;;;5007253;28;20060;-61
2023/02/16 03:08:14;;;;;;;5.90;2.08;;;8.90;99.90;;;;;;5008295;28;20045;-60
2023/02/16 03:13:38;;;;;;;4.78;1.67;;;8.90;99.90;;;;;;4993645;28;20092;-61
2023/02/16 03:16:11;;;;;;;12.02;2.17;;;8.90;99.90;;;;;;4990351;28;20045;-61
2023/02/16 03:29:44;;;;;;;7.78;1.90;;;8.70;99.90;;;;;;4992543;28;20411;-60
2023/02/16 03:32:11;;;;;;;3.65;1.67;;;8.80;99.90;;;;;;4990512;28;20451;-59
2023/02/16 03:34:38;;;;;;;5.13;1.55;;;8.80;99.90;;;;;;5007420;28;20052;-60
2023/02/16 03:37:04;;;;;;;4.93;1.70;;;8.80;99.90;;;;;;4989740;28;20046;-60
2023/02/16 03:40:26;;;;;;;10.82;1.60;;;8.80;99.90;;;;;;5006782;28;20056;-59
2023/02/16 03:42:20;;;;;;;3.20;1.65;;;8.70;99.90;;;;;;4992328;28;20056;-59
2023/02/16 03:44:46;;;;;;;3.70;2.08;;;8.80;99.90;;;;;;5007344;28;20056;-59
2023/02/16 03:47:14;;;;;;;2.72;1.58;;;8.80;99.90;;;;;;5007783;28;20049;-59
2023/02/16 03:49:40;;;;;;;3.53;1.77;;;8.70;99.90;;;;;;5007154;28;20054;-59
2023/02/16 03:52:07;;;;;;;5.60;1.58;;;8.70;99.90;;;;;;5007742;28;20049;-59
2023/02/16 03:54:34;;;;;;;4.43;1.42;;;8.70;99.90;;;;;;5007823;28;20068;-60
2023/02/16 03:57:00;;;;;;;6.78;1.48;;;8.70;99.90;;;;;;4986987;28;20058;-59
2023/02/16 03:59:27;;;;;;;5.18;1.80;;;8.70;99.90;;;;;;4989431;28;20136;-59
2023/02/16 04:01:54;;;;;;;5.47;1.88;;;8.70;99.90;;;;;;5007134;28;20046;-62
2023/02/16 04:04:20;;;;;;;5.60;2.10;;;8.70;99.90;;;;;;5005607;28;20522;-59
2023/02/16 04:06:47;;;;;;;5.28;2.03;;;8.60;99.90;;;;;;5006565;28;20042;-62
2023/02/16 04:09:14;;;;;;;6.85;1.92;;;8.60;99.90;;;;;;5007220;28;20068;-60
2023/02/16 04:14:26;;;;;;;3.28;1.80;;;8.60;99.90;;;;;;5007363;28;20093;-60
2023/02/16 04:16:54;;;;;;;3.10;1.77;;;8.50;99.90;;;;;;5006943;28;20435;-60
2023/02/16 04:19:23;;;;;;;5.47;2.05;;;8.60;99.90;;;;;;5007244;28;20136;-60
2023/02/16 04:21:51;;;;;;;8.23;1.88;;;8.50;99.90;;;;;;5007095;28;20061;-59
2023/02/16 04:24:18;;;;;;;6.97;1.88;;;8.60;99.90;;;;;;5007766;28;20092;-59
2023/02/16 04:26:45;;;;;;;8.55;2.55;;;8.60;99.90;;;;;;5006964;28;20046;-59
2023/02/16 04:29:12;;;;;;;9.90;2.08;;;8.50;99.90;;;;;;5007245;28;20508;-59
2023/02/16 04:31:38;;;;;;;3.42;1.60;;;8.60;99.90;;;;;;5007415;28;20041;-60
2023/02/16 04:34:05;;;;;;;7.97;2.30;;;8.60;99.90;;;;;;5007443;28;20096;-59
2023/02/16 04:36:33;;;;;;;7.00;2.42;;;8.70;99.90;;;;;;5007245;28;20137;-59
2023/02/16 04:38:59;;;;;;;4.35;2.10;;;8.60;99.90;;;;;;4989383;28;20129;-59
2023/02/16 04:41:26;;;;;;;7.60;2.08;;;8.70;99.90;;;;;;5006600;28;20064;-60
2023/02/16 04:43:53;;;;;;;6.85;2.20;;;8.60;99.90;;;;;;5010122;28;20052;-60
2023/02/16 04:46:20;;;;;;;5.97;2.10;;;8.60;99.90;;;;;;5011151;28;20060;-59
2023/02/16 04:48:46;;;;;;;3.10;2.10;;;8.60;99.90;;;;;;4993159;28;20046;-59
2023/02/16 04:51:13;;;;;;;2.90;1.73;;;8.60;99.90;;;;;;5011122;28;20058;-60
2023/02/16 04:53:40;;;;;;;6.30;2.25;;;8.60;99.90;;;;;;5010900;28;20461;-59
2023/02/16 04:56:10;;;;;;;4.38;2.00;;;8.60;99.90;;;;;;5010503;28;20076;-60
2023/02/16 04:58:37;;;;;;;8.45;3.85;;;8.70;99.90;;;;;;5010293;28;20133;-60
2023/02/16 05:01:04;;;;;;;3.80;2.33;;;8.70;99.90;;;;;;5010236;28;20404;-60
2023/02/16 05:03:31;;;;;;;3.95;2.25;;;8.70;99.90;;;;;;5010336;28;20053;-60
2023/02/16 05:05:58;;;;;;;5.13;2.17;;;8.70;99.90;;;;;;5010652;28;20512;-60
2023/02/16 05:08:25;;;;;;;4.18;1.92;;;8.70;99.90;;;;;;5010722;28;20543;-59
2023/02/16 05:16:22;;;;;;;3.70;1.98;;;8.80;99.90;;;;;;5010039;28;20053;-60
2023/02/16 05:18:49;;;;;;;7.22;1.70;;;8.70;99.90;;;;;;4992284;28;20130;-59
2023/02/16 05:21:31;;;;;;;3.15;1.52;;;8.80;99.90;;;;;;5009776;28;20052;-59
2023/02/16 05:24:02;;;;;;;8.27;1.88;;;8.80;99.90;;;;;;5010188;28;20060;-60
2023/02/16 05:26:29;;;;;;;4.22;1.80;;;8.80;99.90;;;;;;5010154;28;20041;-59
2023/02/16 05:28:56;;;;;;;6.53;2.00;;;8.80;99.90;;;;;;5009803;28;20085;-60
2023/02/16 05:31:23;;;;;;;5.05;2.03;;;8.80;99.90;;;;;;5009841;28;20060;-60
2023/02/16 05:33:50;;;;;;;10.45;2.60;;;8.80;99.90;;;;;;4976188;28;20108;-60
2023/02/16 05:36:16;;;;;;;7.00;1.90;;;8.80;99.90;;;;;;5010241;28;20045;-60
2023/02/16 05:38:43;;;;;;;8.45;2.05;;;8.80;99.90;;;;;;5009273;28;20042;-59
2023/02/16 05:41:10;;;;;;;4.85;2.28;;;8.90;99.90;;;;;;5009543;28;20053;-60
2023/02/16 05:43:37;;;;;;;5.47;1.95;;;8.90;99.90;;;;;;5009801;28;20061;-59
2023/02/16 05:46:07;;;;;;;4.80;2.63;;;8.90;99.90;;;;;;5009555;28;20056;-59
2023/02/16 05:48:33;;;;;;;7.05;2.63;;;8.90;99.90;;;;;;5009792;28;20096;-60
2023/02/16 05:51:00;;;;;;;4.70;2.45;;;8.90;99.90;;;;;;5008356;28;20061;-59
2023/02/16 05:53:28;;;;;;;5.68;3.10;;;8.90;99.90;;;;;;5008865;28;20050;-60
2023/02/16 05:55:54;;;;;;;8.38;3.28;;;8.80;99.90;;;;;;5008145;28;20085;-60
2023/02/16 05:58:21;;;;;;;6.72;2.03;;;8.80;99.90;;;;;;5009615;28;20046;-60
2023/02/16 06:00:48;;;;;;;3.83;2.33;;;8.90;99.90;;;;;;5009070;28;20134;-59
2023/02/16 06:03:15;;;;;;;8.77;2.83;;;8.90;99.90;;;;;;5008796;28;20050;-60
2023/02/16 06:05:42;;;;;;;4.95;2.25;;;8.90;99.90;;;;;;5008670;28;20049;-59
2023/02/16 06:08:08;;;;;;;5.32;2.25;;;8.90;99.90;;;;;;5009214;28;20052;-59
2023/02/16 06:10:35;;;;;;;4.28;2.42;;;8.90;99.90;;;;;;5008784;28;20046;-60
2023/02/16 06:13:02;;;;;;;6.95;3.10;;;8.90;99.90;;;;;;5009509;28;20479;-59
2023/02/16 06:15:29;;;;;;;12.88;5.22;;;8.90;99.90;;;;;;5008569;28;20042;-59
2023/02/16 06:17:55;;;;;;;9.38;2.90;;;8.90;99.90;;;;;;5009469;28;20050;-60
2023/02/16 06:20:22;;;;;;;5.07;3.13;;;8.90;99.90;;;;;;5009006;28;20049;-60
2023/02/16 06:22:49;;;;;;;8.00;3.67;;;8.90;99.90;;;;;;5008453;28;20669;-60
2023/02/16 06:25:17;;;;;;;7.70;3.15;;;8.90;99.90;;;;;;5008495;28;20057;-60
2023/02/16 06:27:44;;;;;;;9.77;5.13;;;8.80;99.90;;;;;;4991814;28;20046;-59
2023/02/16 06:30:11;;;;;;;8.77;4.05;;;8.80;99.90;;;;;;5008766;28;20064;-60
2023/02/16 06:32:38;;;;;;;10.70;4.63;;;8.80;99.90;;;;;;5008788;28;20092;-60
2023/02/16 06:35:05;;;;;;;10.63;4.57;;;8.90;99.90;;;;;;5008818;28;20049;-60
2023/02/16 06:37:32;;;;;;;9.18;6.43;;;8.90;99.90;;;;;;4991469;28;20046;-60
2023/02/16 06:39:58;;;;;;;11.25;6.13;;;8.90;99.90;;;;;;5008153;28;20056;-60
2023/02/16 06:42:25;;;;;;;12.18;5.70;;;8.80;99.90;;;;;;4990712;28;20046;-59
2023/02/16 06:44:52;;;;;;;12.50;6.40;;;8.90;99.90;;;;;;5008543;28;20056;-60
2023/02/16 06:47:18;;;;;;;13.63;6.13;;;8.90;99.90;;;;;;5008281;28;20461;-60
2023/02/16 06:49:45;;;;;;;13.43;6.43;;;8.90;99.90;;;;;;5008383;28;20058;-61
2023/02/16 06:52:12;;;;;;;10.52;5.70;;;8.90;99.90;;;;;;5008248;28;20053;-59
2023/02/16 06:54:38;;;;;;;10.82;6.68;;;8.90;99.90;;;;;;5008731;28;20068;-59
2023/02/16 06:57:05;;;;;;;10.43;6.65;;;8.90;99.90;;;;;;5007235;28;20050;-60
2023/02/16 06:59:32;;;;;;;10.63;6.63;;;8.90;99.90;;;;;;5007787;28;20053;-60
2023/02/16 07:01:59;;;;;;;14.45;7.63;;;9.00;99.90;;;;;;5007235;28;20042;-60
2023/02/16 07:04:25;;;;;;;7.70;6.15;;;9.00;99.90;;;;;;5007835;28;20049;-60
2023/02/16 07:06:52;;;;;;;14.80;6.47;;;8.90;99.90;;;;;;5006728;28;20049;-60
2023/02/16 07:09:19;;;;;;;13.57;8.40;;;8.90;99.90;;;;;;4998936;28;20050;-60
2023/02/16 07:11:46;;;;;;;9.40;6.25;;;8.90;99.90;;;;;;4994866;28;20065;-61
2023/02/16 07:14:12;;;;;;;9.65;6.63;;;9.00;99.90;;;;;;5007241;28;20072;-61
2023/02/16 07:16:39;;;;;;;10.57;6.25;;;9.00;99.90;;;;;;5006787;28;20496;-60
2023/02/16 07:19:06;;;;;;;8.40;4.88;;;9.00;99.90;;;;;;4989154;28;20077;-61
2023/02/16 07:21:33;;;;;;;7.80;5.18;;;9.10;99.90;;;;;;5007091;28;20060;-61
2023/02/16 07:23:59;;;;;;;8.05;4.60;;;9.10;99.90;;;;;;5007014;28;20805;-61
2023/02/16 07:26:26;;;;;;;10.73;5.10;;;9.10;99.90;;;;;;5007252;28;20056;-60
2023/02/16 07:28:53;;;;;;;9.90;5.00;;;9.10;99.90;;;;;;5007366;28;20085;-60
2023/02/16 07:31:20;;;;;;;8.88;5.78;;;9.10;99.90;;;;;;5007288;28;20053;-60
2023/02/16 07:33:47;;;;;;;13.45;6.28;;;9.20;99.90;;;;;;5006995;28;20046;-59
2023/02/16 07:36:13;;;;;;;10.90;6.90;;;9.20;99.90;;;;;;5007179;28;20053;-61
2023/02/16 07:38:40;;;;;;;10.65;6.43;;;9.20;99.90;;;;;;5006861;28;20048;-57
2023/02/16 07:41:07;;;;;;;10.77;6.32;;;9.20;99.90;;;;;;5006845;28;20053;-60
2023/02/16 07:43:36;;;;;;;9.02;5.78;;;9.20;99.90;;;;;;4989486;28;20108;-60
2023/02/16 07:46:04;;;;;;;11.55;6.57;;;9.30;99.90;;;;;;5007713;28;20061;-60
2023/02/16 07:48:31;;;;;;;8.18;5.15;;;9.30;99.90;;;;;;5006858;28;20100;-60
2023/02/16 07:50:58;;;;;;;9.93;5.63;;;9.30;99.90;;;;;;5006124;28;20050;-60
2023/02/16 07:53:25;;;;;;;9.77;5.22;;;9.30;99.90;;;;;;5006374;28;20570;-59
2023/02/16 07:55:51;;;;;;;7.20;3.80;;;9.30;99.90;;;;;;4973219;28;20124;-61
2023/02/16 07:58:27;;;;;;;5.95;3.95;;;9.30;99.90;;;;;;5006425;28;20771;-60
2023/02/16 08:01:08;;;;;;;7.07;2.88;;;9.40;99.90;;;;;;5006570;28;20136;-60
2023/02/16 08:03:35;;;;;;;7.07;3.35;;;9.30;99.90;;;;;;4991772;28;20100;-61
2023/02/16 08:06:02;;;;;;;5.88;3.30;;;9.40;99.90;;;;;;4659408;28;10000308;-60
2023/02/16 08:08:29;;;;;;;5.70;3.13;;;9.40;99.90;;;;;;5003696;28;20076;-62
2023/02/16 08:10:56;;;;;;;7.30;2.33;;;9.40;99.90;;;;;;4978991;28;20058;-60
2023/02/16 08:13:23;;;;;;;5.47;2.28;;;9.50;99.90;;;;;;5002146;28;20041;-60
2023/02/16 08:15:50;;;;;;;4.20;1.88;;;9.50;99.90;;;;;;5003493;28;20050;-60
2023/02/16 08:18:16;;;;;;;5.05;2.53;;;9.50;99.90;;;;;;5002501;28;20049;-60
2023/02/16 08:20:44;;;;;;;4.10;1.55;;;9.50;99.90;;;;;;5003571;28;20394;-60
2023/02/16 08:23:29;;;;;;;3.55;1.75;;;9.50;99.90;;;;;;5003792;28;20137;-61
2023/02/16 08:25:57;;;;;;;2.25;1.10;;;9.60;99.90;;;;;;5003471;28;20148;-61
2023/02/16 08:28:27;;;;;;;3.88;1.20;;;9.60;99.90;;;;;;5004114;28;20112;-61
2023/02/16 08:30:54;;;;;;;6.10;1.15;;;9.70;99.90;;;;;;5003158;28;20081;-61
2023/02/16 08:33:21;;;;;;;4.07;1.63;;;9.70;99.90;;;;;;5003139;28;20050;-60
2023/02/16 08:35:48;;;;;;;3.13;0.93;;;9.70;99.90;;;;;;4985355;28;20104;-60
2023/02/16 08:38:16;;;;;;;4.03;0.90;;;9.70;99.90;;;;;;5003583;28;20882;-61
2023/02/16 08:40:47;;;;;;;4.35;1.27;;;9.80;99.90;;;;;;5003382;28;20064;-60
2023/02/16 08:43:14;;;;;;;6.28;1.05;;;9.80;99.90;;;;;;5002984;28;20052;-60
2023/02/16 08:45:47;;;;;;;3.97;1.23;;;9.90;99.90;;;;;;4986472;28;20053;-60
2023/02/16 08:48:14;;;;;;;6.65;1.25;;;9.80;99.90;;;;;;5004042;28;20050;-60
2023/02/16 08:50:52;;;;;;;2.67;1.20;;;9.80;99.90;;;;;;5002722;28;20049;-60
2023/02/16 08:53:21;;;;;;;3.75;0.82;;;9.90;99.90;;;;;;5003088;28;20077;-61
2023/02/16 08:55:55;;;;;;;2.65;0.90;;;9.90;99.90;;;;;;5001469;28;20050;-61
2023/02/16 08:58:22;;;;;;;1.80;1.17;;;9.80;99.90;;;;;;5003569;28;20111;-61
2023/02/16 09:00:49;;;;;;;2.38;0.70;;;9.90;99.90;;;;;;5002827;28;20128;-60
2023/02/16 09:03:26;;;;;;;3.80;0.82;;;9.90;99.90;;;;;;4984783;28;20042;-60
2023/02/16 09:05:56;;;;;;;2.22;0.70;;;9.90;99.90;;;;;;5002612;28;20054;-60
2023/02/16 09:08:23;;;;;;;1.15;0.55;;;9.90;99.90;;;;;;4969643;28;20424;-60
2023/02/16 09:10:49;;;;;;;2.78;0.90;;;9.90;99.90;;;;;;5002278;28;20053;-59
2023/02/16 09:13:18;;;;;;;3.45;1.00;;;9.90;99.90;;;;;;5003843;28;20137;-60
2023/02/16 09:15:46;;;;;;;1.38;0.80;;;9.90;99.90;;;;;;5003007;28;20050;-59
2023/02/16 09:18:13;;;;;;;2.67;1.08;;;9.90;99.90;;;;;;4999844;28;20588;-60
2023/02/16 09:20:40;;;;;;;1.80;0.98;;;10.00;99.90;;;;;;5003223;28;20058;-60
2023/02/16 09:23:09;;;;;;;2.33;0.68;;;10.00;99.90;;;;;;4999870;28;20046;-61
2023/02/16 09:25:37;;;;;;;2.90;0.80;;;10.00;99.90;;;;;;5001731;28;20053;-59
2023/02/16 09:28:04;;;;;;;1.25;0.68;;;10.00;99.90;;;;;;4992980;28;20050;-59
2023/02/16 09:30:31;;;;;;;0.50;0.50;;;10.10;99.90;;;;;;5006898;28;20046;-59
2023/02/16 09:32:59;;;;;;;3.00;1.45;;;10.10;99.90;;;;;;5006358;28;20769;-59
2023/02/16 09:35:25;;;;;;;4.80;0.80;;;10.20;99.90;;;;;;4983122;28;20053;-59
2023/02/16 09:37:52;;;;;;;1.48;0.70;;;10.20;99.90;;;;;;4989697;28;20499;-60
2023/02/16 09:40:19;;;;;;;3.92;0.80;;;10.30;99.90;;;;;;5006446;28;20323;-59
2023/02/16 09:42:59;;;;;;;1.08;0.60;;;10.30;99.90;;;;;;5005950;28;20057;-59
2023/02/16 09:45:26;;;;;;;1.42;0.80;;;10.40;99.90;;;;;;4988927;28;20089;-61
2023/02/16 09:47:54;;;;;;;1.95;1.08;;;10.40;99.90;;;;;;4973332;28;20050;-60
2023/02/16 09:50:22;;;;;;;4.68;1.23;;;10.40;99.90;;;;;;5006593;28;20062;-60
2023/02/16 09:53:29;;;;;;;1.73;1.10;;;10.40;99.90;;;;;;4992228;28;20496;-60
2023/02/16 09:56:19;;;;;;;1.20;0.75;;;10.50;99.90;;;;;;4990044;28;20056;-61
2023/02/16 09:59:09;;;;;;;1.73;1.00;;;10.50;99.90;;;;;;5001522;28;20073;-60
2023/02/16 10:01:43;;;;;;;4.78;1.55;;;10.50;99.90;;;;;;5000513;28;20202;-60
2023/02/16 10:04:34;;;;;;;1.65;0.90;;;10.50;99.90;;;;;;5005491;28;20050;-60
2023/02/16 10:07:38;;;;;;;5.13;1.33;;;10.50;99.90;;;;;;4987089;28;20133;-60
2023/02/16 10:10:06;;;;;;;4.15;1.17;;;10.70;99.90;;;;;;5003769;28;20542;-60
2023/02/16 10:12:37;;;;;;;3.42;1.05;;;10.70;99.90;;;;;;4988870;28;20096;-60
2023/02/16 10:15:15;;;;;;;2.05;1.08;;;10.80;99.90;;;;;;4974253;28;20038;-59
2023/02/16 10:17:59;;;;;;;3.88;1.00;;;10.80;99.90;;;;;;4990247;28;20092;-59
2023/02/16 10:20:31;;;;;;;;;;;10.80;99.90;;;;;;4989941;28;20148;-61
2023/02/16 10:23:03;;;;;;;13.52;1.33;;;10.80;99.90;;;;;;5008729;28;19928;-60
2023/02/16 10:25:40;;;;;;;2.50;0.88;;;10.80;99.90;;;;;;4990807;28;20061;-60
2023/02/16 10:28:13;;;;;;;2.55;1.13;;;10.80;99.90;;;;;;4991114;28;20145;-60
2023/02/16 10:30:45;;;;;;;2.00;1.20;;;10.80;99.90;;;;;;4988221;28;20104;-59
2023/02/16 10:33:23;;;;;;;4.65;1.20;;;10.80;99.90;;;;;;4985902;28;20885;-59
2023/02/16 10:35:54;;;;;;;5.30;1.38;;;10.80;99.90;;;;;;4974717;28;20433;-59
2023/02/16 10:38:37;;;;;;;3.38;1.17;;;10.90;99.90;;;;;;4987823;28;20120;-61
2023/02/16 10:41:16;;;;;;;3.47;1.10;;;10.90;99.90;;;;;;5002607;28;20428;-59
2023/02/16 10:43:57;;;;;;;1.40;1.30;;;11.00;99.90;;;;;;4986910;28;20306;-60
2023/02/16 10:46:25;;;;;;;3.85;1.38;;;11.10;99.90;;;;;;4971040;28;20092;-60
2023/02/16 10:48:53;;;;;;;2.60;1.60;;;11.10;99.90;;;;;;4987305;28;20049;-60
2023/02/16 10:51:20;;;;;;;11.10;1.90;;;11.20;99.90;;;;;;5002969;28;20093;-59
2023/02/16 10:53:55;;;;;;;3.63;1.27;;;11.20;99.90;;;;;;4983931;28;20140;-60
2023/02/16 10:56:22;;;;;;;2.65;1.58;;;11.20;99.90;;;;;;4986379;28;20486;-60
2023/02/16 10:58:49;;;;;;;3.95;1.60;;;11.30;99.90;;;;;;5004282;28;20042;-60
2023/02/16 11:01:19;;;;;;;5.00;1.67;;;11.20;99.90;;;;;;5003387;28;20058;-61
2023/02/16 11:03:49;;;;;;;3.05;1.65;;;11.20;99.90;;;;;;5004474;28;20133;-61
2023/02/16 11:06:19;;;;;;;6.10;1.55;;;11.20;99.90;;;;;;4656012;28;10000112;-60
2023/02/16 11:08:56;;;;;;;7.70;1.73;;;11.20;99.90;;;;;;5004344;28;20085;-61
2023/02/16 11:11:27;;;;;;;7.65;2.22;;;11.10;99.90;;;;;;4988045;28;20072;-59
2023/02/16 11:14:30;;;;;;;7.55;2.22;;;11.10;99.90;;;;;;5001296;28;20129;-59
2023/02/16 11:17:03;;;;;;;6.25;1.73;;;11.10;99.90;;;;;;4999989;28;20082;-60
2023/02/16 11:19:32;;;;;;;3.58;1.70;;;11.10;99.90;;;;;;4982297;28;20079;-60
2023/02/16 11:21:59;;;;;;;5.82;1.58;;;11.10;99.90;;;;;;4986464;28;20439;-60
2023/02/16 11:24:32;;;;;;;2.90;1.40;;;11.10;99.90;;;;;;5003516;28;20057;-59
2023/02/16 11:27:03;;;;;;;3.05;1.65;;;11.20;99.90;;;;;;4985886;28;20053;-60
2023/02/16 11:29:30;;;;;;;2.78;1.80;;;11.20;99.90;;;;;;5003950;28;20216;-60
2023/02/16 11:31:57;;;;;;;1.92;1.40;;;11.20;99.90;;;;;;5001463;28;20068;-59
2023/02/16 11:34:46;;;;;;;6.30;3.83;;;11.20;99.90;;;;;;4985336;28;20137;-60
2023/02/16 11:37:27;;;;;;;15.23;5.20;;;11.20;99.90;;;;;;5002195;28;20054;-60
2023/02/16 11:39:55;;;;;;;14.60;5.35;;;11.20;99.90;;;;;;5001716;28;20058;-61
2023/02/16 11:42:30;;;;;;;7.72;4.57;;;11.20;99.90;;;;;;4979648;28;20100;-59
2023/02/16 11:44:58;;;;;;;7.95;3.22;;;11.20;99.90;;;;;;5002788;28;20431;-60
2023/02/16 11:47:31;;;;;;;6.63;4.85;;;11.30;99.90;;;;;;4985506;28;20050;-61
2023/02/16 11:50:19;;;;;;;4.80;2.00;;;11.30;99.90;;;;;;4984538;28;20049;-60
2023/02/16 11:52:48;;;;;;;3.83;1.50;;;11.40;99.90;;;;;;5000786;28;20068;-62
2023/02/16 11:55:22;;;;;;;2.25;1.27;;;11.40;99.90;;;;;;4983791;28;20136;-61
2023/02/16 11:57:49;;;;;;;1.90;1.00;;;11.50;99.90;;;;;;5001977;28;20049;-60
2023/02/16 12:00:21;;;;;;;6.25;3.40;;;11.50;99.90;;;;;;4999612;28;20314;-62
2023/02/16 12:02:57;;;;;;;2.75;1.20;;;11.50;99.90;;;;;;4984702;28;20445;-61
2023/02/16 12:05:47;;;;;;;3.28;1.05;;;11.60;99.90;;;;;;4981937;28;20053;-61
2023/02/16 12:08:48;;;;;;;2.15;1.27;;;11.60;99.90;;;;;;4960303;28;20116;-62
2023/02/16 12:11:27;;;;;;;3.42;1.20;;;11.60;99.90;;;;;;4970706;28;20572;-60
2023/02/16 12:14:07;;;;;;;3.03;1.60;;;11.60;99.90;;;;;;4977337;28;20515;-62
2023/02/16 12:17:10;;;;;;;3.85;1.77;;;11.50;99.90;;;;;;4985745;28;20050;-62
2023/02/16 12:20:27;;;;;;;2.97;1.30;;;11.60;99.90;;;;;;4984034;28;20053;-61
2023/02/16 12:23:38;;;;;;;1.92;1.00;;;11.70;99.90;;;;;;4913191;29;20078;-62
2023/02/16 12:26:27;;;;;;;4.35;1.30;;;11.60;99.90;;;;;;4985239;28;20052;-59
2023/02/16 12:29:31;;;;;;;7.95;3.20;;;11.70;99.90;;;;;;5003686;28;20132;-61
2023/02/16 12:32:17;;;;;;;5.95;2.05;;;11.70;99.90;;;;;;4979595;28;20507;-61
2023/02/16 12:34:57;;;;;;;7.35;3.40;;;11.90;99.90;;;;;;5003502;28;20101;-61
2023/02/16 12:37:45;;;;;;;5.15;3.25;;;11.90;99.90;;;;;;4986066;28;20050;-61
2023/02/16 12:40:54;;;;;;;7.25;3.22;;;12.00;99.90;;;;;;5001976;28;20062;-62
2023/02/16 12:43:35;;;;;;;4.63;2.88;;;12.00;99.90;;;;;;4938788;28;20050;-62
2023/02/16 12:46:16;;;;;;;8.15;3.53;;;12.10;99.90;;;;;;4980673;28;20056;-63
2023/02/16 12:48:50;;;;;;;2.78;1.80;;;12.10;99.90;;;;;;4985127;28;20046;-60
2023/02/16 12:51:44;;;;;;;3.90;1.08;;;12.10;99.90;;;;;;5003242;28;20116;-61
2023/02/16 12:54:16;;;;;;;;;;;12.10;99.90;;;;;;4985838;28;20090;-61
2023/02/16 12:57:06;;;;;;;3.75;1.17;;;12.00;99.90;;;;;;4985099;28;19932;-62
2023/02/16 12:59:40;;;;;;;2.63;1.00;;;12.10;99.90;;;;;;4986462;28;20049;-61
2023/02/16 13:02:41;;;;;;;2.15;0.93;;;12.20;99.90;;;;;;4957396;28;20997;-61
2023/02/16 13:05:25;;;;;;;1.90;1.00;;;12.20;99.90;;;;;;4995336;28;20050;-61
2023/02/16 13:07:54;;;;;;;;;;;12.30;99.90;;;;;;4975355;28;20558;-61
2023/02/16 13:10:29;;;;;;;3.33;1.42;;;12.40;99.90;;;;;;4981108;28;20388;-60
2023/02/16 13:13:06;;;;;;;2.08;0.90;;;12.50;99.90;;;;;;4969501;28;20465;-60
2023/02/16 13:15:47;;;;;;;1.50;0.68;;;12.50;99.90;;;;;;4981701;28;20039;-60
2023/02/16 13:18:30;;;;;;;3.38;1.00;;;12.50;99.90;;;;;;4989873;28;20291;-58
2023/02/16 13:21:03;;;;;;;2.15;1.00;;;12.50;99.90;;;;;;4986643;28;20215;-61
2023/02/16 13:23:45;;;;;;;2.80;0.98;;;12.50;99.90;;;;;;5003093;28;20046;-61
2023/02/16 13:26:33;;;;;;;3.25;1.98;;;12.40;99.90;;;;;;4987150;28;20089;-60
2023/02/16 13:29:22;;;;;;;3.13;1.33;;;12.40;99.90;;;;;;5002888;28;20050;-61
2023/02/16 13:32:12;;;;;;;1.95;0.88;;;12.30;99.90;;;;;;4984834;28;20057;-61
2023/02/16 13:35:15;;;;;;;5.22;1.25;;;12.30;99.90;;;;;;4983820;28;20102;-61
2023/02/16 13:38:09;;;;;;;1.75;0.80;;;12.30;99.90;;;;;;4983652;28;20056;-61
2023/02/16 13:40:55;;;;;;;3.50;1.02;;;12.20;99.90;;;;;;5000262;28;20485;-61
2023/02/16 13:43:33;;;;;;;2.45;1.08;;;12.10;99.90;;;;;;4999530;28;20218;-60
2023/02/16 13:46:04;;;;;;;1.98;1.17;;;12.10;99.90;;;;;;4982472;28;20049;-60
2023/02/16 13:48:51;;;;;;;2.25;1.00;;;12.10;99.90;;;;;;4985163;28;20432;-61
2023/02/16 13:51:19;;;;;;;1.30;1.20;;;12.00;99.90;;;;;;4981127;28;20068;-60
2023/02/16 13:54:04;;;;;;;2.20;1.73;;;12.00;99.90;;;;;;4971412;28;20132;-60
2023/02/16 13:56:34;;;;;;;3.63;1.17;;;12.00;99.90;;;;;;4984435;28;20056;-59
2023/02/16 13:59:17;;;;;;;2.92;1.20;;;12.00;99.90;;;;;;4997993;28;20050;-60
2023/02/16 14:01:47;;;;;;;1.63;1.23;;;12.00;99.90;;;;;;4998019;28;20130;-61